createdAt,value
2022-12-11T00:00:10.411Z,-1.50
2022-12-11T00:02:37.356Z,-1.50
2022-12-11T00:05:04.631Z,-1.60
2022-12-11T00:07:31.430Z,-1.60
2022-12-11T00:09:58.521Z,-1.60
2022-12-11T00:12:25.395Z,-1.50
2022-12-11T00:14:52.365Z,-1.60
2022-12-11T00:17:19.161Z,-1.60
2022-12-11T00:19:45.950Z,-1.60
2022-12-11T00:22:12.748Z,-1.60
2022-12-11T00:24:39.547Z,-1.50
2022-12-11T00:27:06.370Z,-1.60
2022-12-11T00:29:33.169Z,-1.50
2022-12-11T00:32:00.035Z,-1.60
2022-12-11T00:34:26.950Z,-1.50
2022-12-11T00:36:53.739Z,-1.60
2022-12-11T00:39:20.490Z,-1.60
2022-12-11T00:41:47.286Z,-1.60
2022-12-11T00:44:14.058Z,-1.60
2022-12-11T00:46:40.902Z,-1.60
2022-12-11T00:49:07.740Z,-1.70
2022-12-11T00:51:34.557Z,-1.70
2022-12-11T00:54:01.308Z,-1.70
2022-12-11T00:56:28.110Z,-1.70
2022-12-11T00:58:54.954Z,-1.70
2022-12-11T01:01:23.914Z,-1.60
2022-12-11T01:03:53.358Z,-1.60
2022-12-11T01:06:24.488Z,-1.70
2022-12-11T01:09:14.555Z,-1.70
2022-12-11T01:11:42.858Z,-1.70
2022-12-11T01:14:11.151Z,-1.70
2022-12-11T01:16:38.226Z,-1.70
2022-12-11T01:19:05.293Z,-1.60
2022-12-11T01:21:32.440Z,-1.70
2022-12-11T01:23:59.284Z,-1.70
2022-12-11T01:26:26.232Z,-1.70
2022-12-11T01:28:53.250Z,-1.70
2022-12-11T01:31:20.850Z,-1.70
2022-12-11T01:33:47.902Z,-1.70
2022-12-11T01:36:20.232Z,-1.60
2022-12-11T01:38:48.871Z,-1.70
2022-12-11T01:41:17.656Z,-1.70
2022-12-11T01:44:07.011Z,-1.70
2022-12-11T01:46:35.837Z,-1.70
2022-12-11T01:49:05.885Z,-1.70
2022-12-11T01:51:36.048Z,-1.70
2022-12-11T01:54:09.020Z,-1.70
2022-12-11T01:56:37.940Z,-1.70
2022-12-11T01:59:07.887Z,-1.70
2022-12-11T02:01:39.577Z,-1.80
2022-12-11T02:04:09.167Z,-1.80
2022-12-11T02:06:48.392Z,-1.70
2022-12-11T02:09:18.770Z,-1.70
2022-12-11T02:11:45.540Z,-1.70
2022-12-11T02:14:30.370Z,-1.70
2022-12-11T02:17:03.228Z,-1.70
2022-12-11T02:19:52.716Z,-1.70
2022-12-11T02:22:47.186Z,-1.70
2022-12-11T02:25:36.927Z,-1.70
2022-12-11T02:28:21.197Z,-1.80
2022-12-11T02:30:53.986Z,-1.80
2022-12-11T02:33:29.827Z,-1.80
2022-12-11T02:35:57.112Z,-1.70
2022-12-11T02:38:32.470Z,-1.80
2022-12-11T02:41:01.225Z,-1.70
2022-12-11T02:43:31.378Z,-1.70
2022-12-11T02:45:59.753Z,-1.70
2022-12-11T02:48:26.904Z,-1.60
2022-12-11T02:50:57.597Z,-1.70
2022-12-11T02:53:28.175Z,-1.70
2022-12-11T02:56:22.758Z,-1.70
2022-12-11T02:58:58.465Z,-1.70
2022-12-11T03:01:26.756Z,-1.70
2022-12-11T03:03:55.111Z,-1.80
2022-12-11T03:06:26.766Z,-1.80
2022-12-11T03:08:53.583Z,-1.70
2022-12-11T03:11:20.369Z,-1.70
2022-12-11T03:13:47.182Z,-1.70
2022-12-11T03:16:37.371Z,-1.70
2022-12-11T03:19:38.761Z,-1.80
2022-12-11T03:22:31.444Z,-1.80
2022-12-11T03:25:04.875Z,-1.70
2022-12-11T03:27:45.210Z,-1.80
2022-12-11T03:30:17.878Z,-1.80
2022-12-11T03:32:54.851Z,-1.80
2022-12-11T03:35:51.338Z,-1.80
2022-12-11T03:38:34.266Z,-1.70
2022-12-11T03:41:03.515Z,-1.80
2022-12-11T03:43:32.078Z,-1.70
2022-12-11T03:46:00.770Z,-1.80
2022-12-11T03:48:35.294Z,-1.80
2022-12-11T03:51:05.275Z,-1.80
2022-12-11T03:53:36.783Z,-1.80
2022-12-11T03:56:07.976Z,-1.80
2022-12-11T03:58:34.916Z,-1.80
2022-12-11T04:01:01.733Z,-1.70
2022-12-11T04:03:28.625Z,-1.70
2022-12-11T04:05:56.794Z,-1.80
2022-12-11T04:08:23.992Z,-1.80
2022-12-11T04:11:10.545Z,-1.80
2022-12-11T04:13:38.101Z,-1.80
2022-12-11T04:16:05.216Z,-1.80
2022-12-11T04:18:51.052Z,-1.80
2022-12-11T04:21:39.473Z,-1.80
2022-12-11T04:24:16.348Z,-1.80
2022-12-11T04:26:44.953Z,-1.80
2022-12-11T04:29:11.804Z,-1.80
2022-12-11T04:31:38.582Z,-1.80
2022-12-11T04:34:06.105Z,-1.80
2022-12-11T04:36:32.940Z,-1.80
2022-12-11T04:38:59.757Z,-1.80
2022-12-11T04:41:26.544Z,-1.80
2022-12-11T04:43:53.357Z,-1.80
2022-12-11T04:46:22.660Z,-1.70
2022-12-11T04:48:56.795Z,-1.70
2022-12-11T04:51:24.148Z,-1.70
2022-12-11T04:53:50.986Z,-1.70
2022-12-11T04:56:17.860Z,-1.80
2022-12-11T04:58:45.762Z,-1.80
2022-12-11T05:01:15.915Z,-1.80
2022-12-11T05:03:43.371Z,-1.80
2022-12-11T05:06:11.377Z,-1.80
2022-12-11T05:08:40.366Z,-1.80
2022-12-11T05:11:10.522Z,-1.90
2022-12-11T05:13:38.315Z,-1.90
2022-12-11T05:16:06.874Z,-1.80
2022-12-11T05:18:34.019Z,-1.90
2022-12-11T05:21:03.775Z,-1.90
2022-12-11T05:23:31.122Z,-1.90
2022-12-11T05:26:00.586Z,-1.90
2022-12-11T05:28:30.001Z,-1.80
2022-12-11T05:30:58.905Z,-1.80
2022-12-11T05:33:26.725Z,-1.80
2022-12-11T05:35:53.638Z,-1.80
2022-12-11T05:38:21.241Z,-1.80
2022-12-11T05:40:58.829Z,-1.80
2022-12-11T05:43:27.164Z,-1.80
2022-12-11T05:45:54.835Z,-1.80
2022-12-11T05:48:22.254Z,-1.80
2022-12-11T05:50:59.493Z,-1.80
2022-12-11T05:53:26.859Z,-1.80
2022-12-11T05:55:53.946Z,-1.80
2022-12-11T05:58:21.493Z,-1.80
2022-12-11T06:00:48.419Z,-1.80
2022-12-11T06:03:15.987Z,-1.80
2022-12-11T06:05:43.118Z,-1.80
2022-12-11T06:08:10.227Z,-1.70
2022-12-11T06:10:37.327Z,-1.80
2022-12-11T06:13:04.655Z,-1.80
2022-12-11T06:15:32.586Z,-1.80
2022-12-11T06:17:59.356Z,-1.80
2022-12-11T06:20:26.168Z,-1.80
2022-12-11T06:22:52.931Z,-1.70
2022-12-11T06:25:19.699Z,-1.70
2022-12-11T06:27:46.501Z,-1.70
2022-12-11T06:30:13.603Z,-1.70
2022-12-11T06:32:40.363Z,-1.70
2022-12-11T06:35:07.520Z,-1.70
2022-12-11T06:37:36.217Z,-1.60
2022-12-11T06:40:05.124Z,-1.60
2022-12-11T06:42:32.188Z,-1.60
2022-12-11T06:44:59.910Z,-1.50
2022-12-11T06:47:27.650Z,-1.50
2022-12-11T06:49:54.698Z,-1.60
2022-12-11T06:52:23.030Z,-1.60
2022-12-11T06:54:50.673Z,-1.50
2022-12-11T06:57:18.169Z,-1.50
2022-12-11T06:59:45.321Z,-1.50
2022-12-11T07:02:16.670Z,-1.50
2022-12-11T07:04:44.237Z,-1.50
2022-12-11T07:07:11.473Z,-1.50
2022-12-11T07:09:40.445Z,-1.40
2022-12-11T07:12:07.701Z,-1.50
2022-12-11T07:14:34.621Z,-1.50
2022-12-11T07:17:01.829Z,-1.50
2022-12-11T07:19:28.734Z,-1.50
2022-12-11T07:21:55.561Z,-1.40
2022-12-11T07:24:22.646Z,-1.50
2022-12-11T07:26:49.551Z,-1.50
2022-12-11T07:29:16.499Z,-1.60
2022-12-11T07:31:43.380Z,-1.60
2022-12-11T07:34:12.554Z,-1.60
2022-12-11T07:36:39.431Z,-1.60
2022-12-11T07:39:07.498Z,-1.70
2022-12-11T07:41:34.674Z,-1.70
2022-12-11T07:44:02.470Z,-1.80
2022-12-11T07:46:31.276Z,-1.70
2022-12-11T07:49:00.941Z,-1.70
2022-12-11T07:51:31.341Z,-1.70
2022-12-11T07:54:10.692Z,-1.70
2022-12-11T07:56:37.447Z,-1.80
2022-12-11T07:59:05.971Z,-1.80
2022-12-11T08:01:38.101Z,-1.80
2022-12-11T08:04:07.253Z,-1.70
2022-12-11T08:06:36.627Z,-1.70
2022-12-11T08:09:06.614Z,-1.70
2022-12-11T08:11:33.550Z,-1.70
2022-12-11T08:14:00.542Z,-1.70
2022-12-11T08:16:27.993Z,-1.70
2022-12-11T08:18:55.564Z,-1.70
2022-12-11T08:21:26.488Z,-1.70
2022-12-11T08:23:54.158Z,-1.70
2022-12-11T08:26:29.724Z,-1.80
2022-12-11T08:28:57.253Z,-1.80
2022-12-11T08:31:24.625Z,-1.80
2022-12-11T08:33:52.558Z,-1.80
2022-12-11T08:36:21.625Z,-1.70
2022-12-11T08:38:50.280Z,-1.70
2022-12-11T08:41:24.095Z,-1.70
2022-12-11T08:43:54.825Z,-1.70
2022-12-11T08:46:27.538Z,-1.70
2022-12-11T08:48:55.420Z,-1.60
2022-12-11T08:51:24.195Z,-1.60
2022-12-11T08:53:54.292Z,-1.60
2022-12-11T08:56:23.605Z,-1.70
2022-12-11T08:58:51.294Z,-1.60
2022-12-11T09:01:27.695Z,-1.60
2022-12-11T09:03:56.025Z,-1.60
2022-12-11T09:06:24.767Z,-1.60
2022-12-11T09:08:53.295Z,-1.60
2022-12-11T09:11:29.511Z,-1.60
2022-12-11T09:13:58.163Z,-1.70
2022-12-11T09:16:27.331Z,-1.70
2022-12-11T09:18:56.273Z,-1.60
2022-12-11T09:21:28.891Z,-1.60
2022-12-11T09:24:00.918Z,-1.50
2022-12-11T09:26:30.138Z,-1.60
2022-12-11T09:28:57.570Z,-1.60
2022-12-11T09:31:27.449Z,-1.60
2022-12-11T09:33:57.570Z,-1.50
2022-12-11T09:36:24.878Z,-1.50
2022-12-11T09:38:52.350Z,-1.50
2022-12-11T09:41:22.257Z,-1.40
2022-12-11T09:43:59.363Z,-1.50
2022-12-11T09:46:32.123Z,-1.50
2022-12-11T09:49:02.734Z,-1.50
2022-12-11T09:51:50.980Z,-1.40
2022-12-11T09:54:18.175Z,-1.50
2022-12-11T09:57:16.123Z,-1.50
2022-12-11T10:00:10.967Z,-1.40
2022-12-11T10:03:11.079Z,-1.50
2022-12-11T10:05:43.067Z,-1.40
2022-12-11T10:08:17.520Z,-1.50
2022-12-11T10:10:49.653Z,-1.50
2022-12-11T10:13:31.518Z,-1.60
2022-12-11T10:16:05.534Z,-1.60
2022-12-11T10:18:33.079Z,-1.50
2022-12-11T10:21:03.185Z,-1.50
2022-12-11T10:23:53.078Z,-1.40
2022-12-11T10:26:22.744Z,-1.40
2022-12-11T10:28:49.728Z,-1.40
2022-12-11T10:31:43.570Z,-1.30
2022-12-11T10:34:20.739Z,-1.30
2022-12-11T10:36:47.576Z,-1.50
2022-12-11T10:39:20.117Z,-1.40
2022-12-11T10:41:51.652Z,-1.30
2022-12-11T10:44:25.848Z,-1.40
2022-12-11T10:47:01.981Z,-1.40
2022-12-11T10:49:31.715Z,-1.40
2022-12-11T10:52:01.518Z,-1.40
2022-12-11T10:54:40.500Z,-1.40
2022-12-11T10:57:09.902Z,-1.40
2022-12-11T10:59:50.605Z,-1.40
2022-12-11T11:02:27.921Z,-1.40
2022-12-11T11:04:56.425Z,-1.30
2022-12-11T11:07:31.414Z,-1.30
2022-12-11T11:10:11.625Z,-1.30
2022-12-11T11:12:47.562Z,-1.30
2022-12-11T11:15:17.764Z,-1.40
2022-12-11T11:17:55.434Z,-1.30
2022-12-11T11:20:26.524Z,-1.20
2022-12-11T11:23:05.032Z,-1.30
2022-12-11T11:25:33.457Z,-1.20
2022-12-11T11:28:08.348Z,-1.20
2022-12-11T11:30:41.641Z,-1.20
2022-12-11T11:33:19.678Z,-1.20
2022-12-11T11:35:53.861Z,-1.20
2022-12-11T11:38:46.830Z,-1.40
2022-12-11T11:41:29.952Z,-1.30
2022-12-11T11:44:00.590Z,-1.30
2022-12-11T11:46:36.680Z,-1.30
2022-12-11T11:49:28.195Z,-1.30
2022-12-11T11:52:21.704Z,-1.30
2022-12-11T11:54:58.096Z,-1.30
2022-12-11T11:57:53.263Z,-1.30
2022-12-11T12:00:26.488Z,-1.20
2022-12-11T12:03:03.741Z,-1.20
2022-12-11T12:05:55.828Z,-1.20
2022-12-11T12:08:56.130Z,-1.10
2022-12-11T12:11:40.269Z,-1.30
2022-12-11T12:14:50.745Z,-1.10
2022-12-11T12:17:09.225Z,-1.10
2022-12-11T12:19:57.719Z,-1.10
2022-12-11T12:22:42.671Z,-1.10
2022-12-11T12:25:31.363Z,-1.20
2022-12-11T12:28:08.521Z,-1.20
2022-12-11T12:30:58.540Z,-1.00
2022-12-11T12:33:58.464Z,-1.10
2022-12-11T12:36:45.815Z,-1.00
2022-12-11T12:39:30.610Z,-1.10
2022-12-11T12:42:08.533Z,-1.20
2022-12-11T12:45:03.826Z,-1.10
2022-12-11T12:47:35.802Z,-1.10
2022-12-11T12:50:04.571Z,-1.20
2022-12-11T12:52:37.244Z,-1.00
2022-12-11T12:55:29.005Z,-1.10
2022-12-11T12:58:06.791Z,-1.10
2022-12-11T13:00:36.601Z,-1.20
2022-12-11T13:03:20.229Z,-1.20
2022-12-11T13:06:09.797Z,-1.20
2022-12-11T13:08:48.521Z,-1.20
2022-12-11T13:11:18.412Z,-1.20
2022-12-11T13:14:03.833Z,-1.10
2022-12-11T13:16:42.039Z,-1.20
2022-12-11T13:19:24.014Z,-1.20
2022-12-11T13:22:12.696Z,-1.20
2022-12-11T13:25:19.270Z,-1.20
2022-12-11T13:27:46.154Z,-1.30
2022-12-11T13:30:15.768Z,-1.20
2022-12-11T13:32:52.173Z,-1.20
2022-12-11T13:35:19.030Z,-1.20
2022-12-11T13:37:49.728Z,-1.20
2022-12-11T13:40:25.836Z,-1.30
2022-12-11T13:43:03.489Z,-1.30
2022-12-11T13:45:34.337Z,-1.10
2022-12-11T13:48:01.554Z,-1.10
2022-12-11T13:50:34.508Z,-1.20
2022-12-11T13:53:02.835Z,-1.20
2022-12-11T13:55:32.024Z,-1.20
2022-12-11T13:57:59.528Z,-1.20
2022-12-11T14:00:32.743Z,-1.20
2022-12-11T14:03:04.817Z,-1.20
2022-12-11T14:05:31.891Z,-1.20
2022-12-11T14:08:02.000Z,-1.20
2022-12-11T14:10:32.048Z,-1.30
2022-12-11T14:13:39.665Z,-1.30
2022-12-11T14:16:07.276Z,-1.20
2022-12-11T14:18:36.598Z,-1.30
2022-12-11T14:21:05.856Z,-1.20
2022-12-11T14:23:35.509Z,-1.20
2022-12-11T14:26:18.795Z,-1.20
2022-12-11T14:28:45.990Z,-1.20
2022-12-11T14:31:35.097Z,-1.30
2022-12-11T14:34:07.120Z,-1.30
2022-12-11T14:36:36.090Z,-1.30
2022-12-11T14:39:13.842Z,-1.30
2022-12-11T14:41:40.720Z,-1.20
2022-12-11T14:44:14.336Z,-1.20
2022-12-11T14:46:47.447Z,-1.20
2022-12-11T14:49:40.591Z,-1.20
2022-12-11T14:52:17.613Z,-1.20
2022-12-11T14:54:51.318Z,-1.30
2022-12-11T14:57:26.048Z,-1.30
2022-12-11T14:59:54.098Z,-1.30
2022-12-11T15:02:32.164Z,-1.40
2022-12-11T15:05:26.241Z,-1.40
2022-12-11T15:08:13.008Z,-1.40
2022-12-11T15:10:45.024Z,-1.30
2022-12-11T15:13:13.964Z,-1.40
2022-12-11T15:15:46.594Z,-1.30
2022-12-11T15:18:22.525Z,-1.30
2022-12-11T15:20:54.671Z,-1.30
2022-12-11T15:23:21.949Z,-1.30
2022-12-11T15:25:54.871Z,-1.40
2022-12-11T15:28:36.437Z,-1.30
2022-12-11T15:31:22.277Z,-1.30
2022-12-11T15:33:49.134Z,-1.30
2022-12-11T15:36:21.762Z,-1.20
2022-12-11T15:38:48.573Z,-1.30
2022-12-11T15:41:17.739Z,-1.20
2022-12-11T15:43:45.115Z,-1.30
2022-12-11T15:46:12.064Z,-1.30
2022-12-11T15:48:39.139Z,-1.30
2022-12-11T15:51:06.298Z,-1.30
2022-12-11T15:53:33.080Z,-1.30
2022-12-11T15:56:00.266Z,-1.40
2022-12-11T15:58:27.510Z,-1.30
2022-12-11T16:00:54.975Z,-1.30
2022-12-11T16:03:23.606Z,-1.30
2022-12-11T16:05:52.116Z,-1.40
2022-12-11T16:08:21.869Z,-1.40
2022-12-11T16:10:48.826Z,-1.40
2022-12-11T16:13:15.650Z,-1.40
2022-12-11T16:15:47.733Z,-1.30
2022-12-11T16:18:21.586Z,-1.40
2022-12-11T16:20:50.942Z,-1.30
2022-12-11T16:23:18.380Z,-1.40
2022-12-11T16:25:46.562Z,-1.40
2022-12-11T16:28:15.137Z,-1.40
2022-12-11T16:30:43.479Z,-1.40
2022-12-11T16:33:13.087Z,-1.40
2022-12-11T16:35:41.930Z,-1.40
2022-12-11T16:38:10.111Z,-1.40
2022-12-11T16:40:37.809Z,-1.40
2022-12-11T16:43:05.521Z,-1.40
2022-12-11T16:45:32.879Z,-1.40
2022-12-11T16:48:04.025Z,-1.40
2022-12-11T16:50:32.157Z,-1.40
2022-12-11T16:52:59.210Z,-1.30
2022-12-11T16:55:26.082Z,-1.30
2022-12-11T16:57:52.866Z,-1.30
2022-12-11T17:00:20.451Z,-1.40
2022-12-11T17:02:47.286Z,-1.40
2022-12-11T17:05:14.570Z,-1.40
2022-12-11T17:07:41.651Z,-1.40
2022-12-11T17:10:09.084Z,-1.40
2022-12-11T17:12:36.091Z,-1.40
2022-12-11T17:15:03.235Z,-1.40
2022-12-11T17:17:30.036Z,-1.40
2022-12-11T17:19:57.519Z,-1.40
2022-12-11T17:22:25.716Z,-1.40
2022-12-11T17:24:52.734Z,-1.30
2022-12-11T17:27:19.510Z,-1.40
2022-12-11T17:29:49.408Z,-1.40
2022-12-11T17:32:17.519Z,-1.40
2022-12-11T17:34:44.988Z,-1.40
2022-12-11T17:37:11.900Z,-1.40
2022-12-11T17:39:38.697Z,-1.40
2022-12-11T17:42:06.355Z,-1.40
2022-12-11T17:44:33.208Z,-1.30
2022-12-11T17:47:02.655Z,-1.40
2022-12-11T17:49:33.137Z,-1.40
2022-12-11T17:52:00.258Z,-1.40
2022-12-11T17:54:27.136Z,-1.30
2022-12-11T17:56:54.077Z,-1.30
2022-12-11T17:59:21.192Z,-1.30
2022-12-11T18:01:48.159Z,-1.30
2022-12-11T18:04:15.026Z,-1.30
2022-12-11T18:06:41.825Z,-1.30
2022-12-11T18:09:08.802Z,-1.20
2022-12-11T18:11:35.687Z,-1.30
2022-12-11T18:14:02.613Z,-1.30
2022-12-11T18:16:33.289Z,-1.30
2022-12-11T18:19:00.227Z,-1.30
2022-12-11T18:21:33.611Z,-1.30
2022-12-11T18:24:01.799Z,-1.30
2022-12-11T18:26:29.078Z,-1.30
2022-12-11T18:28:55.958Z,-1.40
2022-12-11T18:31:23.790Z,-1.40
2022-12-11T18:33:52.061Z,-1.40
2022-12-11T18:36:20.324Z,-1.40
2022-12-11T18:38:47.962Z,-1.50
2022-12-11T18:41:16.679Z,-1.50
2022-12-11T18:43:43.584Z,-1.50
2022-12-11T18:46:16.154Z,-1.50
2022-12-11T18:48:44.263Z,-1.50
2022-12-11T18:51:18.474Z,-1.50
2022-12-11T18:53:45.749Z,-1.50
2022-12-11T18:56:15.573Z,-1.50
2022-12-11T18:58:43.207Z,-1.40
2022-12-11T19:01:34.151Z,-1.50
2022-12-11T19:04:06.498Z,-1.50
2022-12-11T19:06:35.920Z,-1.50
2022-12-11T19:09:04.926Z,-1.50
2022-12-11T19:11:33.341Z,-1.50
2022-12-11T19:14:00.843Z,-1.50
2022-12-11T19:16:33.815Z,-1.50
2022-12-11T19:19:03.621Z,-1.50
2022-12-11T19:21:30.722Z,-1.50
2022-12-11T19:23:59.276Z,-1.50
2022-12-11T19:26:26.340Z,-1.50
2022-12-11T19:28:53.556Z,-1.50
2022-12-11T19:31:23.400Z,-1.50
2022-12-11T19:33:50.440Z,-1.50
2022-12-11T19:36:21.474Z,-1.50
2022-12-11T19:38:48.968Z,-1.50
2022-12-11T19:41:21.946Z,-1.60
2022-12-11T19:43:50.259Z,-1.60
2022-12-11T19:46:18.008Z,-1.50
2022-12-11T19:48:45.094Z,-1.50
2022-12-11T19:51:17.975Z,-1.50
2022-12-11T19:53:47.729Z,-1.50
2022-12-11T19:56:16.678Z,-1.50
2022-12-11T19:58:43.475Z,-1.60
2022-12-11T20:01:17.567Z,-1.50
2022-12-11T20:03:44.558Z,-1.50
2022-12-11T20:06:13.648Z,-1.50
2022-12-11T20:08:45.193Z,-1.50
2022-12-11T20:11:17.825Z,-1.50
2022-12-11T20:13:45.949Z,-1.40
2022-12-11T20:16:13.375Z,-1.50
2022-12-11T20:18:40.524Z,-1.40
2022-12-11T20:21:09.733Z,-1.40
2022-12-11T20:23:36.741Z,-1.50
2022-12-11T20:26:08.689Z,-1.50
2022-12-11T20:28:35.903Z,-1.50
2022-12-11T20:31:07.382Z,-1.40
2022-12-11T20:33:34.579Z,-1.40
2022-12-11T20:36:01.577Z,-1.50
2022-12-11T20:38:34.093Z,-1.40
2022-12-11T20:41:01.554Z,-1.40
2022-12-11T20:43:28.363Z,-1.40
2022-12-11T20:45:55.137Z,-1.50
2022-12-11T20:48:22.166Z,-1.50
2022-12-11T20:50:49.191Z,-1.40
2022-12-11T20:53:16.255Z,-1.50
2022-12-11T20:55:44.020Z,-1.50
2022-12-11T20:58:10.986Z,-1.40
2022-12-11T21:00:39.523Z,-1.40
2022-12-11T21:03:06.750Z,-1.40
2022-12-11T21:05:33.739Z,-1.40
2022-12-11T21:08:00.588Z,-1.40
2022-12-11T21:10:27.400Z,-1.50
2022-12-11T21:12:54.236Z,-1.50
2022-12-11T21:15:21.008Z,-1.50
2022-12-11T21:17:47.767Z,-1.50
2022-12-11T21:20:14.610Z,-1.50
2022-12-11T21:22:41.394Z,-1.50
2022-12-11T21:25:08.469Z,-1.60
2022-12-11T21:27:35.388Z,-1.60
2022-12-11T21:30:02.315Z,-1.60
2022-12-11T21:32:29.992Z,-1.60
2022-12-11T21:34:58.596Z,-1.60
2022-12-11T21:37:25.373Z,-1.70
2022-12-11T21:39:56.117Z,-1.60
2022-12-11T21:42:23.945Z,-1.70
2022-12-11T21:47:37.471Z,-1.70
2022-12-11T21:50:04.574Z,-1.70
2022-12-11T21:52:31.332Z,-1.60
2022-12-11T21:54:58.169Z,-1.70
2022-12-11T21:57:26.715Z,-1.70
2022-12-11T21:59:53.747Z,-1.80
2022-12-11T22:02:20.616Z,-1.80
2022-12-11T22:04:47.510Z,-1.70
2022-12-11T22:07:16.211Z,-1.80
2022-12-11T22:09:43.377Z,-1.70
2022-12-11T22:12:21.191Z,-1.70
2022-12-11T22:14:48.396Z,-1.70
2022-12-11T22:17:15.435Z,-1.70
2022-12-11T22:19:42.215Z,-1.80
2022-12-11T22:22:09.070Z,-1.70
2022-12-11T22:24:36.387Z,-1.80
2022-12-11T22:27:03.236Z,-1.70
2022-12-11T22:29:30.056Z,-1.70
2022-12-11T22:31:57.561Z,-1.70
2022-12-11T22:34:24.387Z,-1.80
2022-12-11T22:36:51.498Z,-1.70
2022-12-11T22:39:18.349Z,-1.80
2022-12-11T22:41:45.099Z,-1.70
2022-12-11T22:44:17.384Z,-1.70
2022-12-11T22:46:49.624Z,-1.70
2022-12-11T22:49:18.357Z,-1.70
2022-12-11T22:51:45.367Z,-1.70
2022-12-11T22:54:12.257Z,-1.70
2022-12-11T22:56:39.131Z,-1.70
2022-12-11T22:59:07.512Z,-1.60
2022-12-11T23:01:34.573Z,-1.60
2022-12-11T23:04:01.462Z,-1.60
2022-12-11T23:06:28.280Z,-1.60
2022-12-11T23:08:58.637Z,-1.60
2022-12-11T23:11:29.114Z,-1.70
2022-12-11T23:13:56.881Z,-1.60
2022-12-11T23:16:25.196Z,-1.60
2022-12-11T23:18:52.529Z,-1.60
2022-12-11T23:21:20.067Z,-1.50
2022-12-11T23:23:46.927Z,-1.50
2022-12-11T23:26:15.450Z,-1.50
2022-12-11T23:28:42.382Z,-1.50
2022-12-11T23:31:09.505Z,-1.50
2022-12-11T23:33:37.228Z,-1.50
2022-12-11T23:36:05.590Z,-1.50
2022-12-11T23:38:32.789Z,-1.60
2022-12-11T23:41:01.769Z,-1.60
2022-12-11T23:43:29.014Z,-1.50
2022-12-11T23:45:56.527Z,-1.50
2022-12-11T23:48:23.725Z,-1.60
2022-12-11T23:50:50.718Z,-1.60
2022-12-11T23:53:17.554Z,-1.50
2022-12-11T23:55:45.387Z,-1.60
2022-12-11T23:58:12.482Z,-1.50
